sensor_id;sensor_type;location;lat;lon;timestamp;P1;durP1;ratioP1;P2;durP2;ratioP2
16352;SDS011;8286;51.274;9.542;2023-11-21T00:00:34;5.13;;;2.70;;
16352;SDS011;8286;51.274;9.542;2023-11-21T00:03:01;9.13;;;5.53;;
16352;SDS011;8286;51.274;9.542;2023-11-21T00:05:29;20.90;;;7.80;;
16352;SDS011;8286;51.274;9.542;2023-11-21T00:07:55;16.13;;;7.47;;
16352;SDS011;8286;51.274;9.542;2023-11-21T00:10:23;14.77;;;6.20;;
16352;SDS011;8286;51.274;9.542;2023-11-21T00:12:50;13.53;;;5.73;;
16352;SDS011;8286;51.274;9.542;2023-11-21T00:15:20;8.00;;;3.20;;
16352;SDS011;8286;51.274;9.542;2023-11-21T00:17:46;6.57;;;3.23;;
16352;SDS011;8286;51.274;9.542;2023-11-21T00:20:13;12.03;;;5.17;;
16352;SDS011;8286;51.274;9.542;2023-11-21T00:22:40;11.47;;;3.70;;
16352;SDS011;8286;51.274;9.542;2023-11-21T00:25:07;5.23;;;3.23;;
16352;SDS011;8286;51.274;9.542;2023-11-21T00:27:35;6.00;;;3.20;;
16352;SDS011;8286;51.274;9.542;2023-11-21T00:30:02;8.70;;;4.00;;
16352;SDS011;8286;51.274;9.542;2023-11-21T00:32:31;6.97;;;4.60;;
16352;SDS011;8286;51.274;9.542;2023-11-21T00:34:57;9.53;;;3.90;;
16352;SDS011;8286;51.274;9.542;2023-11-21T00:37:24;9.10;;;3.40;;
16352;SDS011;8286;51.274;9.542;2023-11-21T00:39:51;6.80;;;3.20;;
16352;SDS011;8286;51.274;9.542;2023-11-21T00:42:17;11.30;;;3.50;;
16352;SDS011;8286;51.274;9.542;2023-11-21T00:44:45;7.63;;;3.40;;
16352;SDS011;8286;51.274;9.542;2023-11-21T00:47:12;6.37;;;2.40;;
16352;SDS011;8286;51.274;9.542;2023-11-21T00:49:39;7.03;;;2.90;;
16352;SDS011;8286;51.274;9.542;2023-11-21T00:52:06;5.73;;;3.03;;
16352;SDS011;8286;51.274;9.542;2023-11-21T00:54:33;6.60;;;3.63;;
16352;SDS011;8286;51.274;9.542;2023-11-21T00:56:59;7.40;;;2.90;;
16352;SDS011;8286;51.274;9.542;2023-11-21T00:59:26;8.83;;;3.07;;
16352;SDS011;8286;51.274;9.542;2023-11-21T01:01:54;3.90;;;2.60;;
16352;SDS011;8286;51.274;9.542;2023-11-21T01:04:20;5.80;;;2.63;;
16352;SDS011;8286;51.274;9.542;2023-11-21T01:06:47;4.07;;;2.70;;
16352;SDS011;8286;51.274;9.542;2023-11-21T01:09:14;3.27;;;2.43;;
16352;SDS011;8286;51.274;9.542;2023-11-21T01:11:43;4.17;;;2.40;;
16352;SDS011;8286;51.274;9.542;2023-11-21T01:14:10;4.23;;;2.10;;
16352;SDS011;8286;51.274;9.542;2023-11-21T01:16:38;4.87;;;2.30;;
16352;SDS011;8286;51.274;9.542;2023-11-21T01:19:06;4.00;;;2.27;;
16352;SDS011;8286;51.274;9.542;2023-11-21T01:21:34;5.83;;;2.43;;
16352;SDS011;8286;51.274;9.542;2023-11-21T01:24:01;4.47;;;2.80;;
16352;SDS011;8286;51.274;9.542;2023-11-21T01:26:27;6.30;;;2.50;;
16352;SDS011;8286;51.274;9.542;2023-11-21T01:28:54;3.27;;;2.60;;
16352;SDS011;8286;51.274;9.542;2023-11-21T01:31:21;5.90;;;2.33;;
16352;SDS011;8286;51.274;9.542;2023-11-21T01:33:47;3.40;;;2.90;;
16352;SDS011;8286;51.274;9.542;2023-11-21T01:36:15;10.63;;;2.80;;
16352;SDS011;8286;51.274;9.542;2023-11-21T01:38:42;7.37;;;4.10;;
16352;SDS011;8286;51.274;9.542;2023-11-21T01:41:09;7.80;;;4.13;;
16352;SDS011;8286;51.274;9.542;2023-11-21T01:43:36;4.30;;;3.20;;
16352;SDS011;8286;51.274;9.542;2023-11-21T01:46:03;8.07;;;3.30;;
16352;SDS011;8286;51.274;9.542;2023-11-21T01:48:31;6.47;;;3.13;;
16352;SDS011;8286;51.274;9.542;2023-11-21T01:50:57;4.30;;;2.53;;
16352;SDS011;8286;51.274;9.542;2023-11-21T01:53:26;5.13;;;2.77;;
16352;SDS011;8286;51.274;9.542;2023-11-21T01:55:53;3.43;;;2.50;;
16352;SDS011;8286;51.274;9.542;2023-11-21T01:58:21;8.17;;;2.57;;
16352;SDS011;8286;51.274;9.542;2023-11-21T02:00:47;5.27;;;2.60;;
16352;SDS011;8286;51.274;9.542;2023-11-21T02:03:16;7.07;;;2.80;;
16352;SDS011;8286;51.274;9.542;2023-11-21T02:05:42;5.57;;;2.70;;
16352;SDS011;8286;51.274;9.542;2023-11-21T02:08:09;6.50;;;2.57;;
16352;SDS011;8286;51.274;9.542;2023-11-21T02:10:37;9.77;;;2.97;;
16352;SDS011;8286;51.274;9.542;2023-11-21T02:13:04;4.10;;;2.30;;
16352;SDS011;8286;51.274;9.542;2023-11-21T02:15:31;6.73;;;3.37;;
16352;SDS011;8286;51.274;9.542;2023-11-21T02:17:58;5.37;;;2.87;;
16352;SDS011;8286;51.274;9.542;2023-11-21T02:20:25;4.43;;;3.00;;
16352;SDS011;8286;51.274;9.542;2023-11-21T02:22:56;5.97;;;3.10;;
16352;SDS011;8286;51.274;9.542;2023-11-21T02:25:24;9.33;;;3.73;;
16352;SDS011;8286;51.274;9.542;2023-11-21T02:27:51;4.93;;;3.13;;
16352;SDS011;8286;51.274;9.542;2023-11-21T02:30:19;9.77;;;4.83;;
16352;SDS011;8286;51.274;9.542;2023-11-21T02:32:46;12.03;;;4.03;;
16352;SDS011;8286;51.274;9.542;2023-11-21T02:35:13;6.27;;;3.30;;
16352;SDS011;8286;51.274;9.542;2023-11-21T02:37:40;6.97;;;3.23;;
16352;SDS011;8286;51.274;9.542;2023-11-21T02:40:10;4.63;;;2.97;;
16352;SDS011;8286;51.274;9.542;2023-11-21T02:42:37;5.90;;;3.27;;
16352;SDS011;8286;51.274;9.542;2023-11-21T02:45:05;9.53;;;3.40;;
16352;SDS011;8286;51.274;9.542;2023-11-21T02:47:32;7.67;;;3.13;;
16352;SDS011;8286;51.274;9.542;2023-11-21T02:49:59;7.90;;;3.33;;
16352;SDS011;8286;51.274;9.542;2023-11-21T02:52:26;6.57;;;3.97;;
16352;SDS011;8286;51.274;9.542;2023-11-21T02:54:52;7.17;;;2.97;;
16352;SDS011;8286;51.274;9.542;2023-11-21T02:57:20;5.70;;;2.47;;
16352;SDS011;8286;51.274;9.542;2023-11-21T02:59:47;4.73;;;2.57;;
16352;SDS011;8286;51.274;9.542;2023-11-21T03:02:14;3.73;;;2.60;;
16352;SDS011;8286;51.274;9.542;2023-11-21T03:04:41;4.50;;;2.33;;
16352;SDS011;8286;51.274;9.542;2023-11-21T03:07:08;8.17;;;2.40;;
16352;SDS011;8286;51.274;9.542;2023-11-21T03:09:35;2.83;;;2.33;;
16352;SDS011;8286;51.274;9.542;2023-11-21T03:12:02;5.20;;;2.67;;
16352;SDS011;8286;51.274;9.542;2023-11-21T03:14:30;7.97;;;2.00;;
16352;SDS011;8286;51.274;9.542;2023-11-21T03:16:57;5.43;;;2.47;;
16352;SDS011;8286;51.274;9.542;2023-11-21T03:19:23;2.87;;;2.13;;
16352;SDS011;8286;51.274;9.542;2023-11-21T03:21:50;5.90;;;2.60;;
16352;SDS011;8286;51.274;9.542;2023-11-21T03:24:18;4.20;;;2.80;;
16352;SDS011;8286;51.274;9.542;2023-11-21T03:26:45;2.43;;;2.23;;
16352;SDS011;8286;51.274;9.542;2023-11-21T03:29:11;14.90;;;6.33;;
16352;SDS011;8286;51.274;9.542;2023-11-21T03:31:39;6.30;;;4.17;;
16352;SDS011;8286;51.274;9.542;2023-11-21T03:34:06;4.43;;;3.30;;
16352;SDS011;8286;51.274;9.542;2023-11-21T03:36:33;3.10;;;2.77;;
16352;SDS011;8286;51.274;9.542;2023-11-21T03:38:59;5.50;;;2.67;;
16352;SDS011;8286;51.274;9.542;2023-11-21T03:41:26;3.17;;;2.23;;
16352;SDS011;8286;51.274;9.542;2023-11-21T03:43:53;6.13;;;2.70;;
16352;SDS011;8286;51.274;9.542;2023-11-21T03:46:19;4.83;;;2.70;;
16352;SDS011;8286;51.274;9.542;2023-11-21T03:48:47;6.30;;;2.70;;
16352;SDS011;8286;51.274;9.542;2023-11-21T03:51:14;4.07;;;2.40;;
16352;SDS011;8286;51.274;9.542;2023-11-21T03:53:40;5.57;;;3.20;;
16352;SDS011;8286;51.274;9.542;2023-11-21T03:56:07;6.47;;;2.60;;
16352;SDS011;8286;51.274;9.542;2023-11-21T03:58:34;6.50;;;2.77;;
16352;SDS011;8286;51.274;9.542;2023-11-21T04:01:01;5.43;;;2.87;;
16352;SDS011;8286;51.274;9.542;2023-11-21T04:03:28;4.80;;;2.83;;
16352;SDS011;8286;51.274;9.542;2023-11-21T04:05:56;5.57;;;2.80;;
16352;SDS011;8286;51.274;9.542;2023-11-21T04:08:23;5.80;;;2.37;;
16352;SDS011;8286;51.274;9.542;2023-11-21T04:10:51;5.80;;;2.63;;
16352;SDS011;8286;51.274;9.542;2023-11-21T04:13:18;6.47;;;2.70;;
16352;SDS011;8286;51.274;9.542;2023-11-21T04:15:45;5.97;;;3.73;;
16352;SDS011;8286;51.274;9.542;2023-11-21T04:18:11;4.57;;;2.70;;
16352;SDS011;8286;51.274;9.542;2023-11-21T04:20:38;4.53;;;3.13;;
16352;SDS011;8286;51.274;9.542;2023-11-21T04:23:06;3.67;;;2.90;;
16352;SDS011;8286;51.274;9.542;2023-11-21T04:25:35;7.20;;;3.00;;
16352;SDS011;8286;51.274;9.542;2023-11-21T04:28:02;6.57;;;3.33;;
16352;SDS011;8286;51.274;9.542;2023-11-21T04:30:29;6.20;;;2.80;;
16352;SDS011;8286;51.274;9.542;2023-11-21T04:32:57;10.10;;;3.40;;
16352;SDS011;8286;51.274;9.542;2023-11-21T04:35:24;6.93;;;3.47;;
16352;SDS011;8286;51.274;9.542;2023-11-21T04:37:51;5.70;;;2.70;;
16352;SDS011;8286;51.274;9.542;2023-11-21T04:40:19;4.40;;;2.57;;
16352;SDS011;8286;51.274;9.542;2023-11-21T04:42:45;4.83;;;2.97;;
16352;SDS011;8286;51.274;9.542;2023-11-21T04:45:13;7.97;;;3.00;;
16352;SDS011;8286;51.274;9.542;2023-11-21T04:47:39;8.70;;;3.27;;
16352;SDS011;8286;51.274;9.542;2023-11-21T04:50:06;5.37;;;2.90;;
16352;SDS011;8286;51.274;9.542;2023-11-21T04:52:33;4.00;;;2.70;;
16352;SDS011;8286;51.274;9.542;2023-11-21T04:55:00;6.10;;;3.20;;
16352;SDS011;8286;51.274;9.542;2023-11-21T04:57:29;5.00;;;3.47;;
16352;SDS011;8286;51.274;9.542;2023-11-21T04:59:55;5.27;;;3.03;;
16352;SDS011;8286;51.274;9.542;2023-11-21T05:02:22;6.87;;;3.10;;
16352;SDS011;8286;51.274;9.542;2023-11-21T05:04:49;7.90;;;3.53;;
16352;SDS011;8286;51.274;9.542;2023-11-21T05:07:15;5.50;;;3.40;;
16352;SDS011;8286;51.274;9.542;2023-11-21T05:09:43;4.37;;;2.97;;
16352;SDS011;8286;51.274;9.542;2023-11-21T05:12:11;6.67;;;3.43;;
16352;SDS011;8286;51.274;9.542;2023-11-21T05:14:39;7.27;;;3.17;;
16352;SDS011;8286;51.274;9.542;2023-11-21T05:17:06;6.80;;;3.07;;
16352;SDS011;8286;51.274;9.542;2023-11-21T05:19:33;7.50;;;3.00;;
16352;SDS011;8286;51.274;9.542;2023-11-21T05:22:01;5.63;;;3.30;;
16352;SDS011;8286;51.274;9.542;2023-11-21T05:24:27;7.87;;;2.93;;
16352;SDS011;8286;51.274;9.542;2023-11-21T05:26:54;4.17;;;2.80;;
16352;SDS011;8286;51.274;9.542;2023-11-21T05:29:21;4.77;;;3.23;;
16352;SDS011;8286;51.274;9.542;2023-11-21T05:31:49;7.30;;;3.10;;
16352;SDS011;8286;51.274;9.542;2023-11-21T05:34:16;7.87;;;3.33;;
16352;SDS011;8286;51.274;9.542;2023-11-21T05:36:43;3.57;;;3.10;;
16352;SDS011;8286;51.274;9.542;2023-11-21T05:39:10;4.97;;;3.20;;
16352;SDS011;8286;51.274;9.542;2023-11-21T05:41:37;4.87;;;3.57;;
16352;SDS011;8286;51.274;9.542;2023-11-21T05:44:04;11.13;;;3.87;;
16352;SDS011;8286;51.274;9.542;2023-11-21T05:46:31;9.37;;;3.77;;
16352;SDS011;8286;51.274;9.542;2023-11-21T05:48:59;4.93;;;3.17;;
16352;SDS011;8286;51.274;9.542;2023-11-21T05:51:25;11.03;;;3.50;;
16352;SDS011;8286;51.274;9.542;2023-11-21T05:53:52;4.90;;;3.53;;
16352;SDS011;8286;51.274;9.542;2023-11-21T05:56:19;5.87;;;3.33;;
16352;SDS011;8286;51.274;9.542;2023-11-21T05:58:45;12.17;;;3.87;;
16352;SDS011;8286;51.274;9.542;2023-11-21T06:01:12;8.33;;;3.80;;
16352;SDS011;8286;51.274;9.542;2023-11-21T06:03:39;8.13;;;3.83;;
16352;SDS011;8286;51.274;9.542;2023-11-21T06:06:07;6.17;;;3.40;;
16352;SDS011;8286;51.274;9.542;2023-11-21T06:08:34;6.73;;;3.73;;
16352;SDS011;8286;51.274;9.542;2023-11-21T06:11:01;7.87;;;3.80;;
16352;SDS011;8286;51.274;9.542;2023-11-21T06:13:28;7.70;;;4.30;;
16352;SDS011;8286;51.274;9.542;2023-11-21T06:15:55;8.40;;;3.87;;
16352;SDS011;8286;51.274;9.542;2023-11-21T06:18:22;11.57;;;4.50;;
16352;SDS011;8286;51.274;9.542;2023-11-21T06:20:49;7.53;;;4.27;;
16352;SDS011;8286;51.274;9.542;2023-11-21T06:23:16;9.97;;;4.00;;
16352;SDS011;8286;51.274;9.542;2023-11-21T06:25:43;11.50;;;4.80;;
16352;SDS011;8286;51.274;9.542;2023-11-21T06:28:09;6.73;;;4.67;;
16352;SDS011;8286;51.274;9.542;2023-11-21T06:30:36;12.20;;;4.73;;
16352;SDS011;8286;51.274;9.542;2023-11-21T06:33:03;10.70;;;5.30;;
16352;SDS011;8286;51.274;9.542;2023-11-21T06:35:29;6.53;;;4.40;;
16352;SDS011;8286;51.274;9.542;2023-11-21T06:37:58;11.50;;;4.77;;
16352;SDS011;8286;51.274;9.542;2023-11-21T06:40:26;11.77;;;4.97;;
16352;SDS011;8286;51.274;9.542;2023-11-21T06:42:53;9.37;;;5.20;;
16352;SDS011;8286;51.274;9.542;2023-11-21T06:45:20;10.80;;;5.53;;
16352;SDS011;8286;51.274;9.542;2023-11-21T06:47:46;10.73;;;5.40;;
16352;SDS011;8286;51.274;9.542;2023-11-21T06:50:13;9.83;;;5.43;;
16352;SDS011;8286;51.274;9.542;2023-11-21T06:52:40;10.60;;;4.90;;
16352;SDS011;8286;51.274;9.542;2023-11-21T06:55:08;10.47;;;5.73;;
16352;SDS011;8286;51.274;9.542;2023-11-21T06:57:36;7.93;;;5.03;;
16352;SDS011;8286;51.274;9.542;2023-11-21T07:00:03;12.00;;;5.50;;
16352;SDS011;8286;51.274;9.542;2023-11-21T07:02:34;14.47;;;5.83;;
16352;SDS011;8286;51.274;9.542;2023-11-21T07:05:00;9.97;;;5.63;;
16352;SDS011;8286;51.274;9.542;2023-11-21T07:07:27;9.73;;;5.60;;
16352;SDS011;8286;51.274;9.542;2023-11-21T07:09:54;10.77;;;5.87;;
16352;SDS011;8286;51.274;9.542;2023-11-21T07:12:21;10.00;;;5.87;;
16352;SDS011;8286;51.274;9.542;2023-11-21T07:14:50;11.37;;;5.87;;
16352;SDS011;8286;51.274;9.542;2023-11-21T07:17:16;9.67;;;5.47;;
16352;SDS011;8286;51.274;9.542;2023-11-21T07:19:43;10.90;;;6.37;;
16352;SDS011;8286;51.274;9.542;2023-11-21T07:22:10;13.93;;;6.47;;
16352;SDS011;8286;51.274;9.542;2023-11-21T07:24:39;17.77;;;6.43;;
16352;SDS011;8286;51.274;9.542;2023-11-21T07:27:05;13.07;;;6.47;;
16352;SDS011;8286;51.274;9.542;2023-11-21T07:29:32;10.63;;;6.10;;
16352;SDS011;8286;51.274;9.542;2023-11-21T07:32:00;11.10;;;6.43;;
16352;SDS011;8286;51.274;9.542;2023-11-21T07:34:27;10.13;;;6.27;;
16352;SDS011;8286;51.274;9.542;2023-11-21T07:36:54;12.30;;;7.07;;
16352;SDS011;8286;51.274;9.542;2023-11-21T07:39:20;14.77;;;6.83;;
16352;SDS011;8286;51.274;9.542;2023-11-21T07:41:47;13.70;;;6.63;;
16352;SDS011;8286;51.274;9.542;2023-11-21T07:44:15;12.83;;;6.73;;
16352;SDS011;8286;51.274;9.542;2023-11-21T07:46:42;16.40;;;6.73;;
16352;SDS011;8286;51.274;9.542;2023-11-21T07:49:10;12.40;;;6.97;;
16352;SDS011;8286;51.274;9.542;2023-11-21T07:51:40;17.23;;;7.53;;
16352;SDS011;8286;51.274;9.542;2023-11-21T07:54:06;16.27;;;8.03;;
16352;SDS011;8286;51.274;9.542;2023-11-21T07:56:34;16.77;;;6.47;;
16352;SDS011;8286;51.274;9.542;2023-11-21T07:59:01;13.07;;;6.70;;
16352;SDS011;8286;51.274;9.542;2023-11-21T08:01:27;16.00;;;7.20;;
16352;SDS011;8286;51.274;9.542;2023-11-21T08:03:54;12.77;;;7.37;;
16352;SDS011;8286;51.274;9.542;2023-11-21T08:06:25;11.03;;;7.20;;
16352;SDS011;8286;51.274;9.542;2023-11-21T08:08:52;16.07;;;7.70;;
16352;SDS011;8286;51.274;9.542;2023-11-21T08:11:18;11.23;;;7.20;;
16352;SDS011;8286;51.274;9.542;2023-11-21T08:13:46;15.40;;;6.90;;
16352;SDS011;8286;51.274;9.542;2023-11-21T08:16:13;16.47;;;7.63;;
16352;SDS011;8286;51.274;9.542;2023-11-21T08:18:39;19.20;;;7.70;;
16352;SDS011;8286;51.274;9.542;2023-11-21T08:21:06;14.47;;;7.63;;
16352;SDS011;8286;51.274;9.542;2023-11-21T08:23:34;17.83;;;7.53;;
16352;SDS011;8286;51.274;9.542;2023-11-21T08:26:01;15.10;;;8.47;;
16352;SDS011;8286;51.274;9.542;2023-11-21T08:28:28;15.30;;;8.13;;
16352;SDS011;8286;51.274;9.542;2023-11-21T08:30:55;15.27;;;8.43;;
16352;SDS011;8286;51.274;9.542;2023-11-21T08:33:21;15.47;;;8.40;;
16352;SDS011;8286;51.274;9.542;2023-11-21T08:35:48;15.60;;;7.73;;
16352;SDS011;8286;51.274;9.542;2023-11-21T08:38:15;13.23;;;7.70;;
16352;SDS011;8286;51.274;9.542;2023-11-21T08:40:44;17.43;;;7.60;;
16352;SDS011;8286;51.274;9.542;2023-11-21T08:43:10;18.60;;;8.53;;
16352;SDS011;8286;51.274;9.542;2023-11-21T08:45:37;15.10;;;8.27;;
16352;SDS011;8286;51.274;9.542;2023-11-21T08:48:04;13.53;;;8.37;;
16352;SDS011;8286;51.274;9.542;2023-11-21T08:50:30;15.23;;;8.00;;
16352;SDS011;8286;51.274;9.542;2023-11-21T08:52:57;16.50;;;8.10;;
16352;SDS011;8286;51.274;9.542;2023-11-21T08:55:24;12.33;;;7.97;;
16352;SDS011;8286;51.274;9.542;2023-11-21T08:57:52;18.13;;;9.40;;
16352;SDS011;8286;51.274;9.542;2023-11-21T09:00:19;19.67;;;8.77;;
16352;SDS011;8286;51.274;9.542;2023-11-21T09:02:45;15.33;;;7.83;;
16352;SDS011;8286;51.274;9.542;2023-11-21T09:05:13;17.93;;;8.40;;
16352;SDS011;8286;51.274;9.542;2023-11-21T09:07:40;16.47;;;7.50;;
16352;SDS011;8286;51.274;9.542;2023-11-21T09:10:08;19.90;;;8.70;;
16352;SDS011;8286;51.274;9.542;2023-11-21T09:12:35;17.57;;;7.77;;
16352;SDS011;8286;51.274;9.542;2023-11-21T09:15:05;13.47;;;8.07;;
16352;SDS011;8286;51.274;9.542;2023-11-21T09:17:32;18.97;;;8.27;;
16352;SDS011;8286;51.274;9.542;2023-11-21T09:20:00;15.97;;;8.50;;
16352;SDS011;8286;51.274;9.542;2023-11-21T09:22:28;14.07;;;7.67;;
16352;SDS011;8286;51.274;9.542;2023-11-21T09:24:56;18.67;;;8.83;;
16352;SDS011;8286;51.274;9.542;2023-11-21T09:27:23;19.07;;;8.63;;
16352;SDS011;8286;51.274;9.542;2023-11-21T09:29:50;19.47;;;8.80;;
16352;SDS011;8286;51.274;9.542;2023-11-21T09:32:19;15.83;;;8.77;;
16352;SDS011;8286;51.274;9.542;2023-11-21T09:34:46;19.20;;;8.63;;
16352;SDS011;8286;51.274;9.542;2023-11-21T09:37:13;14.33;;;8.23;;
16352;SDS011;8286;51.274;9.542;2023-11-21T09:39:39;19.20;;;8.33;;
16352;SDS011;8286;51.274;9.542;2023-11-21T09:42:08;12.23;;;7.37;;
16352;SDS011;8286;51.274;9.542;2023-11-21T09:44:40;19.77;;;8.00;;
16352;SDS011;8286;51.274;9.542;2023-11-21T09:47:14;14.53;;;8.27;;
16352;SDS011;8286;51.274;9.542;2023-11-21T09:49:43;14.33;;;7.47;;
16352;SDS011;8286;51.274;9.542;2023-11-21T09:52:15;16.10;;;8.83;;
16352;SDS011;8286;51.274;9.542;2023-11-21T09:54:50;19.33;;;8.63;;
16352;SDS011;8286;51.274;9.542;2023-11-21T09:57:18;19.63;;;9.17;;
16352;SDS011;8286;51.274;9.542;2023-11-21T09:59:46;17.93;;;8.70;;
16352;SDS011;8286;51.274;9.542;2023-11-21T10:02:13;19.50;;;9.97;;
16352;SDS011;8286;51.274;9.542;2023-11-21T10:04:40;19.30;;;9.43;;
16352;SDS011;8286;51.274;9.542;2023-11-21T10:07:08;14.67;;;7.87;;
16352;SDS011;8286;51.274;9.542;2023-11-21T10:09:35;17.00;;;9.43;;
16352;SDS011;8286;51.274;9.542;2023-11-21T10:12:03;23.13;;;9.40;;
16352;SDS011;8286;51.274;9.542;2023-11-21T10:14:33;18.73;;;8.87;;
16352;SDS011;8286;51.274;9.542;2023-11-21T10:17:01;19.50;;;9.33;;
16352;SDS011;8286;51.274;9.542;2023-11-21T10:19:27;20.40;;;9.33;;
16352;SDS011;8286;51.274;9.542;2023-11-21T10:21:54;22.10;;;9.43;;
16352;SDS011;8286;51.274;9.542;2023-11-21T10:24:24;20.13;;;9.60;;
16352;SDS011;8286;51.274;9.542;2023-11-21T10:26:51;21.80;;;9.73;;
16352;SDS011;8286;51.274;9.542;2023-11-21T10:29:18;19.60;;;9.57;;
16352;SDS011;8286;51.274;9.542;2023-11-21T10:31:48;15.47;;;9.13;;
16352;SDS011;8286;51.274;9.542;2023-11-21T10:34:15;24.90;;;10.63;;
16352;SDS011;8286;51.274;9.542;2023-11-21T10:36:43;23.77;;;10.70;;
16352;SDS011;8286;51.274;9.542;2023-11-21T10:39:13;22.33;;;11.20;;
16352;SDS011;8286;51.274;9.542;2023-11-21T10:41:44;18.43;;;9.80;;
16352;SDS011;8286;51.274;9.542;2023-11-21T10:44:13;20.30;;;10.60;;
16352;SDS011;8286;51.274;9.542;2023-11-21T10:46:45;23.63;;;11.63;;
16352;SDS011;8286;51.274;9.542;2023-11-21T10:49:15;25.20;;;11.53;;
16352;SDS011;8286;51.274;9.542;2023-11-21T10:51:43;17.07;;;10.00;;
16352;SDS011;8286;51.274;9.542;2023-11-21T10:54:10;24.30;;;10.57;;
16352;SDS011;8286;51.274;9.542;2023-11-21T10:56:37;19.93;;;9.73;;
16352;SDS011;8286;51.274;9.542;2023-11-21T10:59:08;22.77;;;10.30;;
16352;SDS011;8286;51.274;9.542;2023-11-21T11:01:39;23.73;;;11.23;;
16352;SDS011;8286;51.274;9.542;2023-11-21T11:04:08;24.73;;;12.67;;
16352;SDS011;8286;51.274;9.542;2023-11-21T11:06:40;21.53;;;10.67;;
16352;SDS011;8286;51.274;9.542;2023-11-21T11:09:07;21.43;;;10.90;;
16352;SDS011;8286;51.274;9.542;2023-11-21T11:11:34;22.47;;;9.63;;
16352;SDS011;8286;51.274;9.542;2023-11-21T11:14:04;21.90;;;11.43;;
16352;SDS011;8286;51.274;9.542;2023-11-21T11:16:32;22.17;;;12.10;;
16352;SDS011;8286;51.274;9.542;2023-11-21T11:18:59;22.07;;;11.17;;
16352;SDS011;8286;51.274;9.542;2023-11-21T11:21:27;22.53;;;10.27;;
16352;SDS011;8286;51.274;9.542;2023-11-21T11:24:11;23.70;;;11.67;;
16352;SDS011;8286;51.274;9.542;2023-11-21T11:26:50;22.27;;;10.50;;
16352;SDS011;8286;51.274;9.542;2023-11-21T11:29:23;22.87;;;10.60;;
16352;SDS011;8286;51.274;9.542;2023-11-21T11:32:00;23.83;;;11.00;;
16352;SDS011;8286;51.274;9.542;2023-11-21T11:34:32;28.00;;;12.30;;
16352;SDS011;8286;51.274;9.542;2023-11-21T11:37:04;23.23;;;11.33;;
16352;SDS011;8286;51.274;9.542;2023-11-21T11:39:35;24.93;;;11.30;;
16352;SDS011;8286;51.274;9.542;2023-11-21T11:42:03;25.57;;;11.50;;
16352;SDS011;8286;51.274;9.542;2023-11-21T11:44:46;28.83;;;13.33;;
16352;SDS011;8286;51.274;9.542;2023-11-21T11:47:23;31.93;;;11.10;;
16352;SDS011;8286;51.274;9.542;2023-11-21T11:50:05;23.10;;;10.87;;
16352;SDS011;8286;51.274;9.542;2023-11-21T11:52:37;23.07;;;10.50;;
16352;SDS011;8286;51.274;9.542;2023-11-21T11:55:06;22.50;;;11.00;;
16352;SDS011;8286;51.274;9.542;2023-11-21T11:57:35;28.07;;;12.47;;
16352;SDS011;8286;51.274;9.542;2023-11-21T12:00:09;32.00;;;13.10;;
16352;SDS011;8286;51.274;9.542;2023-11-21T12:02:43;22.53;;;11.13;;
16352;SDS011;8286;51.274;9.542;2023-11-21T12:05:11;24.50;;;11.53;;
16352;SDS011;8286;51.274;9.542;2023-11-21T12:07:41;26.90;;;11.83;;
16352;SDS011;8286;51.274;9.542;2023-11-21T12:10:10;22.33;;;10.83;;
16352;SDS011;8286;51.274;9.542;2023-11-21T12:12:41;21.97;;;11.03;;
16352;SDS011;8286;51.274;9.542;2023-11-21T12:15:09;20.23;;;9.97;;
16352;SDS011;8286;51.274;9.542;2023-11-21T12:17:37;22.23;;;10.17;;
16352;SDS011;8286;51.274;9.542;2023-11-21T12:20:06;20.97;;;9.77;;
16352;SDS011;8286;51.274;9.542;2023-11-21T12:22:39;25.20;;;10.40;;
16352;SDS011;8286;51.274;9.542;2023-11-21T12:25:08;20.80;;;8.77;;
16352;SDS011;8286;51.274;9.542;2023-11-21T12:27:34;19.90;;;8.70;;
16352;SDS011;8286;51.274;9.542;2023-11-21T12:30:01;16.43;;;8.53;;
16352;SDS011;8286;51.274;9.542;2023-11-21T12:32:28;15.37;;;8.50;;
16352;SDS011;8286;51.274;9.542;2023-11-21T12:34:54;16.73;;;8.53;;
16352;SDS011;8286;51.274;9.542;2023-11-21T12:37:22;15.20;;;8.27;;
16352;SDS011;8286;51.274;9.542;2023-11-21T12:39:49;14.93;;;8.30;;
16352;SDS011;8286;51.274;9.542;2023-11-21T12:42:15;17.30;;;9.00;;
16352;SDS011;8286;51.274;9.542;2023-11-21T12:44:42;21.70;;;9.87;;
16352;SDS011;8286;51.274;9.542;2023-11-21T12:47:16;17.70;;;9.80;;
16352;SDS011;8286;51.274;9.542;2023-11-21T12:49:43;19.00;;;9.37;;
16352;SDS011;8286;51.274;9.542;2023-11-21T12:52:09;19.13;;;9.00;;
16352;SDS011;8286;51.274;9.542;2023-11-21T12:54:38;19.57;;;9.40;;
16352;SDS011;8286;51.274;9.542;2023-11-21T12:57:04;18.07;;;9.17;;
16352;SDS011;8286;51.274;9.542;2023-11-21T12:59:33;20.63;;;10.60;;
16352;SDS011;8286;51.274;9.542;2023-11-21T13:02:00;18.23;;;9.27;;
16352;SDS011;8286;51.274;9.542;2023-11-21T13:04:31;17.00;;;8.67;;
16352;SDS011;8286;51.274;9.542;2023-11-21T13:07:02;13.07;;;7.27;;
16352;SDS011;8286;51.274;9.542;2023-11-21T13:09:31;13.77;;;6.97;;
16352;SDS011;8286;51.274;9.542;2023-11-21T13:12:02;13.93;;;6.57;;
16352;SDS011;8286;51.274;9.542;2023-11-21T13:14:29;15.23;;;7.07;;
16352;SDS011;8286;51.274;9.542;2023-11-21T13:16:56;16.17;;;6.70;;
16352;SDS011;8286;51.274;9.542;2023-11-21T13:19:23;9.50;;;5.17;;
16352;SDS011;8286;51.274;9.542;2023-11-21T13:21:52;9.87;;;5.20;;
16352;SDS011;8286;51.274;9.542;2023-11-21T13:24:19;9.50;;;4.77;;
16352;SDS011;8286;51.274;9.542;2023-11-21T13:26:46;6.27;;;3.87;;
16352;SDS011;8286;51.274;9.542;2023-11-21T13:29:16;5.63;;;3.63;;
16352;SDS011;8286;51.274;9.542;2023-11-21T13:31:42;5.00;;;2.67;;
16352;SDS011;8286;51.274;9.542;2023-11-21T13:34:09;1.70;;;1.60;;
16352;SDS011;8286;51.274;9.542;2023-11-21T13:36:39;2.27;;;2.07;;
16352;SDS011;8286;51.274;9.542;2023-11-21T13:39:07;2.87;;;2.00;;
16352;SDS011;8286;51.274;9.542;2023-11-21T13:41:40;3.33;;;2.90;;
16352;SDS011;8286;51.274;9.542;2023-11-21T13:44:07;4.17;;;2.63;;
16352;SDS011;8286;51.274;9.542;2023-11-21T13:46:52;6.67;;;2.87;;
16352;SDS011;8286;51.274;9.542;2023-11-21T13:49:21;3.33;;;2.87;;
16352;SDS011;8286;51.274;9.542;2023-11-21T13:51:49;3.77;;;2.90;;
16352;SDS011;8286;51.274;9.542;2023-11-21T13:54:18;3.50;;;2.87;;
16352;SDS011;8286;51.274;9.542;2023-11-21T13:56:46;5.13;;;3.13;;
16352;SDS011;8286;51.274;9.542;2023-11-21T13:59:15;5.50;;;3.57;;
16352;SDS011;8286;51.274;9.542;2023-11-21T14:01:46;5.17;;;3.27;;
16352;SDS011;8286;51.274;9.542;2023-11-21T14:04:25;5.80;;;4.20;;
16352;SDS011;8286;51.274;9.542;2023-11-21T14:07:11;7.43;;;4.50;;
16352;SDS011;8286;51.274;9.542;2023-11-21T14:09:47;7.80;;;4.87;;
16352;SDS011;8286;51.274;9.542;2023-11-21T14:12:14;7.30;;;4.87;;
16352;SDS011;8286;51.274;9.542;2023-11-21T14:14:41;6.03;;;4.57;;
16352;SDS011;8286;51.274;9.542;2023-11-21T14:17:09;6.17;;;4.47;;
16352;SDS011;8286;51.274;9.542;2023-11-21T14:19:37;7.37;;;5.10;;
16352;SDS011;8286;51.274;9.542;2023-11-21T14:22:08;7.23;;;5.40;;
16352;SDS011;8286;51.274;9.542;2023-11-21T14:24:34;11.63;;;5.27;;
16352;SDS011;8286;51.274;9.542;2023-11-21T14:27:02;7.03;;;4.63;;
16352;SDS011;8286;51.274;9.542;2023-11-21T14:29:30;8.17;;;4.80;;
16352;SDS011;8286;51.274;9.542;2023-11-21T14:32:01;7.80;;;4.63;;
16352;SDS011;8286;51.274;9.542;2023-11-21T14:34:28;6.97;;;5.17;;
16352;SDS011;8286;51.274;9.542;2023-11-21T14:36:56;10.13;;;4.73;;
16352;SDS011;8286;51.274;9.542;2023-11-21T14:39:23;7.23;;;4.47;;
16352;SDS011;8286;51.274;9.542;2023-11-21T14:41:53;7.37;;;4.50;;
16352;SDS011;8286;51.274;9.542;2023-11-21T14:44:21;9.80;;;5.03;;
16352;SDS011;8286;51.274;9.542;2023-11-21T14:46:51;9.70;;;5.23;;
16352;SDS011;8286;51.274;9.542;2023-11-21T14:49:19;9.13;;;5.90;;
16352;SDS011;8286;51.274;9.542;2023-11-21T14:51:48;7.23;;;5.63;;
16352;SDS011;8286;51.274;9.542;2023-11-21T14:54:27;6.93;;;5.17;;
16352;SDS011;8286;51.274;9.542;2023-11-21T14:57:05;9.97;;;5.23;;